Terminal Aerodrome Forecast
Issued by NWS

Home | Current Version | Previous Version | Text Only | Print | Product List | Glossary On
Versions: 1 2 3 4 5 6 7 8 9 10 11 12 13 14 15 16 17 18 19 20
000
FTUS44 KMAF 020528
TAFCNM
TAF
KCNM 020528Z 0206/0306 13011KT P6SM FEW100 BKN150
     FM020800 16006KT P6SM SCT080
     FM022000 17011G17KT P6SM SCT080
     FM030100 16008KT P6SM SCT080 BKN110=

USA.gov is the U.S. government's official web portal to all federal, state and local government web resources and services.